Time;durP1;ratioP1;P1;durP2;ratioP2;P2;SDS_P1;SDS_P2;PMS_P1;PMS_P2;Temp;Humidity;BMP_temperature;BMP_pressure;BME280_temperature;BME280_humidity;BME280_pressure;Samples;Min_cycle;Max_cycle;Signal;HPM_P1;HPM_P2
2021/08/07 00:01:45;;;;;;;0.77;0.60;;;;;;;23.93;47.95;97532.72;5020990;28;20205;-85
2021/08/07 00:04:11;;;;;;;0.80;0.70;;;;;;;23.92;48.03;97518.56;5037120;28;20189;-85
2021/08/07 00:06:38;;;;;;;0.60;0.60;;;;;;;23.87;48.17;97517.59;5037130;28;20213;-85
2021/08/07 00:09:05;;;;;;;0.77;0.77;;;;;;;23.84;48.19;97518.03;5037024;28;20232;-85
2021/08/07 00:11:31;;;;;;;0.60;0.60;;;;;;;23.84;48.21;97518.03;5037102;28;20614;-85
2021/08/07 00:13:58;;;;;;;0.70;0.70;;;;;;;23.81;48.13;97522.78;5037360;28;20189;-85
2021/08/07 00:16:24;;;;;;;0.60;0.60;;;;;;;23.72;48.35;97526.78;5037193;28;20525;-85
2021/08/07 00:18:51;;;;;;;1.83;0.90;;;;;;;23.81;48.38;97522.78;5037020;28;20197;-85
2021/08/07 00:21:17;;;;;;;0.67;0.50;;;;;;;23.79;48.19;97519.53;5037303;28;20193;-85
2021/08/07 00:23:44;;;;;;;0.70;0.70;;;;;;;23.82;48.35;97524.41;5036893;28;20250;-85
2021/08/07 00:26:11;;;;;;;0.60;0.60;;;;;;;23.81;48.21;97514.78;5037162;28;20201;-86
2021/08/07 00:28:37;;;;;;;0.70;0.70;;;;;;;23.85;48.05;97512.50;5036984;28;20190;-85
2021/08/07 00:31:04;;;;;;;0.67;0.67;;;;;;;23.78;47.87;97515.22;5037018;28;20212;-85
2021/08/07 00:33:31;;;;;;;0.57;0.57;;;;;;;23.74;48.23;97518.53;5037100;28;20284;-85
2021/08/07 00:35:57;;;;;;;0.60;0.60;;;;;;;23.72;48.37;97512.63;5036871;28;20320;-85
2021/08/07 00:38:24;;;;;;;1.17;0.70;;;;;;;23.70;48.45;97507.50;5020421;28;20243;-85
2021/08/07 00:40:51;;;;;;;0.63;0.63;;;;;;;23.70;48.51;97509.38;5037173;28;20204;-85
2021/08/07 00:43:19;;;;;;;0.60;0.60;;;;;;;23.66;48.46;97500.97;5036951;28;20279;-85
2021/08/07 00:45:47;;;;;;;0.60;0.60;;;;;;;23.65;48.86;97507.34;5036956;28;20194;-85
2021/08/07 00:48:20;;;;;;;0.60;0.60;;;;;;;23.65;48.46;97507.34;5037277;28;20209;-85
2021/08/07 00:50:51;;;;;;;0.63;0.63;;;;;;;23.74;48.37;97503.38;5038133;28;20194;-85
2021/08/07 00:53:22;;;;;;;0.60;0.60;;;;;;;23.73;48.07;97499.09;5043472;28;20216;-86
2021/08/07 00:55:52;;;;;;;0.63;0.63;;;;;;;23.73;48.25;97499.09;5043035;28;20193;-86
2021/08/07 00:58:20;;;;;;;0.83;0.63;;;;;;;23.72;48.15;97494.81;5036706;28;20622;-85
2021/08/07 01:00:50;;;;;;;1.00;0.70;;;;;;;23.72;48.35;97494.81;5020568;28;20198;-85
2021/08/07 01:03:35;;;;;;;1.40;0.70;;;;;;;23.74;48.12;97495.41;5036579;28;20440;-85
2021/08/07 01:06:17;;;;;;;0.70;0.70;;;;;;;23.69;48.31;97484.56;5036876;28;20232;-85
2021/08/07 01:09:02;;;;;;;0.60;0.60;;;;;;;23.70;48.41;97488.84;5036422;28;20194;-86
2021/08/07 01:11:41;;;;;;;1.60;0.70;;;;;;;23.84;47.99;97484.25;5037437;28;20200;-86
2021/08/07 01:14:13;;;;;;;0.70;0.70;;;;;;;23.87;47.75;97485.63;5040875;28;20195;-85
2021/08/07 01:16:44;;;;;;;0.60;0.60;;;;;;;23.90;47.77;97482.56;5040896;28;20200;-85
2021/08/07 01:19:16;;;;;;;0.80;0.80;;;;;;;23.83;47.90;97482.63;5040325;28;20630;-85
2021/08/07 01:21:50;;;;;;;0.70;0.70;;;;;;;23.81;47.74;97490.81;5040492;28;20185;-85
2021/08/07 01:24:28;;;;;;;0.67;0.67;;;;;;;23.78;48.05;97479.78;5040317;28;20197;-85
2021/08/07 01:27:23;;;;;;;0.70;0.70;;;;;;;23.79;48.04;97479.56;5040815;28;20661;-85
2021/08/07 01:29:59;;;;;;;0.83;0.70;;;;;;;23.74;47.94;97474.09;5041879;28;20247;-85
2021/08/07 01:32:30;;;;;;;1.10;0.73;;;;;;;23.78;47.91;97472.59;5040493;28;20204;-85
2021/08/07 01:34:59;;;;;;;0.50;0.50;;;;;;;23.75;48.00;97488.19;5039935;28;20653;-86
2021/08/07 01:37:27;;;;;;;0.70;0.70;;;;;;;23.75;48.13;97480.22;5039950;28;20201;-86
2021/08/07 01:40:08;;;;;;;0.70;0.67;;;;;;;23.76;47.86;97472.00;5040732;28;20593;-85
2021/08/07 01:42:58;;;;;;;0.53;0.53;;;;;;;23.78;47.93;97464.63;5048104;28;20646;-85
2021/08/07 01:45:29;;;;;;;0.60;0.60;;;;;;;23.78;48.08;97469.94;5042026;28;20705;-85
2021/08/07 01:48:03;;;;;;;0.60;0.60;;;;;;;23.80;47.78;97470.53;5023370;28;20218;-85
2021/08/07 01:50:52;;;;;;;0.67;0.67;;;;;;;23.81;48.04;97463.38;5039448;28;20250;-85
2021/08/07 01:53:25;;;;;;;0.87;0.60;;;;;;;23.82;47.80;97465.00;5039498;28;20276;-86
2021/08/07 01:56:08;;;;;;;0.70;0.70;;;;;;;23.82;47.92;97467.66;5039941;28;20189;-85
2021/08/07 01:58:51;;;;;;;0.50;0.50;;;;;;;23.73;48.06;97467.13;5039437;28;20193;-85
2021/08/07 02:01:27;;;;;;;0.70;0.70;;;;;;;23.71;48.10;97474.50;5039424;28;20197;-86
2021/08/07 02:03:55;;;;;;;0.70;0.70;;;;;;;23.72;47.98;97470.00;5039784;28;20737;-85
2021/08/07 02:06:24;;;;;;;0.60;0.50;;;;;;;23.71;47.88;97463.84;5039442;28;20193;-84
2021/08/07 02:08:52;;;;;;;0.60;0.60;;;;;;;24.08;47.31;97455.94;5039096;28;20227;-85
2021/08/07 02:11:29;;;;;;;0.60;0.60;;;;;;;24.18;46.74;97460.75;5039258;28;20204;-85
2021/08/07 02:14:01;;;;;;;0.87;0.70;;;;;;;24.19;46.90;97458.88;5039444;28;20241;-85
2021/08/07 02:16:29;;;;;;;0.73;0.70;;;;;;;24.21;46.25;97451.50;5038997;28;20511;-85
2021/08/07 02:19:00;;;;;;;0.53;0.53;;;;;;;24.22;46.79;97453.13;5039429;28;20202;-85
2021/08/07 02:21:33;;;;;;;0.60;0.60;;;;;;;24.22;46.94;97459.25;5038857;28;20191;-85
2021/08/07 02:24:00;;;;;;;0.57;0.57;;;;;;;24.26;46.68;97459.66;5038961;28;20201;-85
2021/08/07 02:26:28;;;;;;;0.60;0.60;;;;;;;24.26;46.54;97456.97;5038825;28;20197;-85
2021/08/07 02:29:01;;;;;;;0.80;0.80;;;;;;;24.26;46.82;97456.97;5024175;28;20270;-85
2021/08/07 02:31:28;;;;;;;1.07;0.83;;;;;;;24.28;46.64;97452.22;5039151;28;20208;-85
2021/08/07 02:33:56;;;;;;;0.60;0.60;;;;;;;23.96;47.44;97450.50;5039145;28;20193;-85
2021/08/07 02:36:24;;;;;;;0.70;0.60;;;;;;;24.16;46.97;97435.34;5022508;28;20242;-85
2021/08/07 02:38:59;;;;;;;0.87;0.60;;;;;;;24.12;46.66;97445.63;5039899;28;20220;-85
2021/08/07 02:41:27;;;;;;;0.70;0.70;;;;;;;23.73;47.91;97439.66;5022193;28;20197;-85
2021/08/07 02:43:55;;;;;;;0.60;0.60;;;;;;;23.76;47.90;97433.91;5038546;28;20201;-85
2021/08/07 02:46:23;;;;;;;0.80;0.80;;;;;;;23.71;47.90;97434.53;5038537;28;20197;-85
2021/08/07 02:48:55;;;;;;;0.73;0.73;;;;;;;23.63;48.26;97432.97;5038342;28;20304;-85
2021/08/07 02:51:23;;;;;;;0.70;0.70;;;;;;;23.61;48.09;97432.38;5022106;28;20307;-85
2021/08/07 02:53:53;;;;;;;0.70;0.70;;;;;;;23.59;48.15;97433.66;5038990;28;20190;-85
2021/08/07 02:56:21;;;;;;;0.50;0.50;;;;;;;23.63;48.18;97434.84;5038399;28;20569;-85
2021/08/07 02:58:48;;;;;;;0.50;0.50;;;;;;;23.69;48.05;97425.97;5022770;28;20207;-84
2021/08/07 03:01:17;;;;;;;0.83;0.60;;;;;;;23.67;47.97;97436.84;5038176;28;20251;-85
2021/08/07 03:03:49;;;;;;;0.50;0.50;;;;;;;23.64;48.21;97436.47;5038184;28;20649;-85
2021/08/07 03:06:17;;;;;;;0.63;0.63;;;;;;;23.66;48.13;97418.41;5038263;28;20209;-85
2021/08/07 03:08:44;;;;;;;0.70;0.70;;;;;;;23.78;47.82;97421.16;5038138;28;20223;-85
2021/08/07 03:11:13;;;;;;;0.70;0.70;;;;;;;23.67;47.98;97420.88;5037942;28;20201;-85
2021/08/07 03:13:41;;;;;;;0.80;0.80;;;;;;;23.63;48.12;97424.19;5038049;28;20201;-85
2021/08/07 03:16:08;;;;;;;0.70;0.70;;;;;;;23.60;48.13;97420.09;5038037;28;20204;-85
2021/08/07 03:18:40;;;;;;;0.50;0.50;;;;;;;23.61;48.20;97420.94;5038040;28;20185;-85
2021/08/07 03:21:07;;;;;;;0.70;0.70;;;;;;;23.63;48.11;97417.00;5021791;28;20231;-85
2021/08/07 03:23:45;;;;;;;0.60;0.60;;;;;;;23.64;47.78;97415.16;5037917;28;20255;-85
2021/08/07 03:26:11;;;;;;;0.60;0.60;;;;;;;23.65;48.04;97416.78;5037804;28;20541;-84
2021/08/07 03:28:39;;;;;;;0.50;0.50;;;;;;;23.67;47.87;97418.22;5037870;28;20304;-85
2021/08/07 03:31:09;;;;;;;0.60;0.60;;;;;;;23.70;47.75;97418.81;5038279;28;20243;-85
2021/08/07 03:33:37;;;;;;;0.50;0.50;;;;;;;23.66;47.83;97423.75;5021838;28;20198;-85
2021/08/07 03:36:06;;;;;;;0.50;0.50;;;;;;;23.60;48.19;97427.31;5037305;28;20595;-85
2021/08/07 03:38:35;;;;;;;0.57;0.57;;;;;;;23.61;48.17;97421.75;5037766;28;20261;-85
2021/08/07 03:41:01;;;;;;;0.60;0.53;;;;;;;23.64;48.00;97412.50;5037621;28;20216;-85
2021/08/07 03:43:28;;;;;;;0.63;0.60;;;;;;;23.64;47.95;97416.00;5037539;28;20197;-85
2021/08/07 03:45:55;;;;;;;0.60;0.60;;;;;;;23.65;48.04;97411.47;5038181;28;20280;-85
2021/08/07 03:48:25;;;;;;;0.60;0.60;;;;;;;23.62;47.67;97399.41;5021917;28;20526;-85
2021/08/07 03:50:53;;;;;;;0.80;0.80;;;;;;;23.69;47.80;97407.31;5038128;28;20191;-85
2021/08/07 03:53:28;;;;;;;0.60;0.60;;;;;;;23.66;47.97;97405.09;5023229;28;20275;-85
2021/08/07 03:55:55;;;;;;;0.50;0.50;;;;;;;23.66;47.95;97402.44;5021106;28;20626;-85
2021/08/07 03:58:22;;;;;;;0.77;0.70;;;;;;;23.66;47.77;97402.44;5038092;28;20271;-85
2021/08/07 04:00:57;;;;;;;0.73;0.60;;;;;;;23.66;47.94;97391.78;5037471;28;20283;-84
2021/08/07 04:03:28;;;;;;;0.53;0.53;;;;;;;23.63;48.04;97387.72;5022644;28;20186;-85
2021/08/07 04:05:58;;;;;;;0.53;0.53;;;;;;;23.62;48.08;97386.09;5038332;28;20537;-85
2021/08/07 04:08:25;;;;;;;0.70;0.63;;;;;;;23.61;48.00;97399.63;5039155;28;20658;-85
2021/08/07 04:10:52;;;;;;;0.50;0.50;;;;;;;23.58;48.14;97392.88;5041045;28;20261;-85
2021/08/07 04:13:20;;;;;;;0.57;0.57;;;;;;;23.60;48.01;97387.34;5050410;28;20265;-85
2021/08/07 04:15:48;;;;;;;0.60;0.60;;;;;;;23.63;48.00;97381.59;5054717;28;20197;-85
2021/08/07 04:18:15;;;;;;;0.50;0.50;;;;;;;23.63;47.97;97376.25;5050688;28;20219;-85
2021/08/07 04:20:44;;;;;;;0.60;0.60;;;;;;;23.64;48.15;97362.72;5046992;28;20197;-85
2021/08/07 04:23:11;;;;;;;0.63;0.63;;;;;;;23.64;47.81;97381.38;5037624;28;20203;-85
2021/08/07 04:25:40;;;;;;;0.60;0.60;;;;;;;23.61;47.94;97378.31;5037362;28;20193;-84
2021/08/07 04:28:07;;;;;;;0.50;0.50;;;;;;;23.57;48.10;97382.47;5036565;28;20642;-84
2021/08/07 04:30:35;;;;;;;0.70;0.70;;;;;;;23.53;48.17;97382.88;5037020;28;20197;-85
2021/08/07 04:33:03;;;;;;;0.43;0.43;;;;;;;23.53;48.22;97388.22;5037129;28;20269;-85
2021/08/07 04:35:35;;;;;;;0.70;0.70;;;;;;;23.57;48.06;97382.47;5037253;28;20194;-85
2021/08/07 04:38:02;;;;;;;0.60;0.60;;;;;;;23.51;48.34;97374.31;5037188;28;20193;-85
2021/08/07 04:40:33;;;;;;;0.57;0.57;;;;;;;23.50;48.24;97378.00;5037606;28;20194;-85
2021/08/07 04:43:04;;;;;;;0.50;0.50;;;;;;;23.48;48.27;97374.75;5037218;28;20566;-85
2021/08/07 04:45:31;;;;;;;0.60;0.60;;;;;;;23.50;48.31;97367.34;5037560;28;20600;-85
2021/08/07 04:48:04;;;;;;;0.63;0.63;;;;;;;23.52;48.07;97367.94;5040466;28;20236;-84
2021/08/07 04:50:39;;;;;;;0.67;0.60;;;;;;;23.53;48.12;97374.91;5040995;28;20197;-85
2021/08/07 04:53:06;;;;;;;0.40;0.40;;;;;;;23.62;48.03;97369.31;5041394;28;20265;-85
2021/08/07 04:55:35;;;;;;;0.67;0.67;;;;;;;23.65;47.75;97366.19;5042199;28;20194;-85
2021/08/07 04:58:04;;;;;;;0.60;0.60;;;;;;;23.57;48.10;97372.63;5041271;28;20191;-85
2021/08/07 05:00:33;;;;;;;0.43;0.43;;;;;;;23.55;48.00;97369.38;5041428;28;20201;-85
2021/08/07 05:03:03;;;;;;;0.60;0.60;;;;;;;23.57;48.11;97377.16;5057348;28;20189;-86
2021/08/07 05:05:34;;;;;;;0.70;0.60;;;;;;;23.56;48.33;97367.50;5031374;28;20262;-86
2021/08/07 05:08:01;;;;;;;0.60;0.60;;;;;;;23.52;48.02;97362.63;5041050;28;20216;-86
2021/08/07 05:10:29;;;;;;;0.60;0.60;;;;;;;23.56;48.10;97365.66;5041965;28;20211;-85
2021/08/07 05:12:57;;;;;;;0.60;0.60;;;;;;;23.74;47.73;97356.88;5045279;28;20197;-85
2021/08/07 05:15:24;;;;;;;0.60;0.60;;;;;;;23.79;47.33;97359.69;5040436;28;20189;-85
2021/08/07 05:17:50;;;;;;;0.80;0.70;;;;;;;23.78;47.57;97352.75;5042647;28;20635;-86
2021/08/07 05:20:18;;;;;;;0.50;0.50;;;;;;;23.76;47.42;97365.47;5040810;28;20283;-86
2021/08/07 05:22:44;;;;;;;0.60;0.60;;;;;;;23.74;47.61;97362.22;5040923;28;20204;-86
2021/08/07 05:25:12;;;;;;;0.53;0.53;;;;;;;23.50;48.06;97362.03;5058957;28;20591;-87
2021/08/07 05:27:39;;;;;;;0.70;0.50;;;;;;;23.43;48.38;97369.28;5044205;28;20207;-86
2021/08/07 05:30:06;;;;;;;0.50;0.50;;;;;;;23.42;48.47;97372.16;5040986;28;20201;-85
2021/08/07 05:32:34;;;;;;;0.50;0.50;;;;;;;23.42;48.30;97370.31;5040753;28;20280;-85
2021/08/07 05:35:00;;;;;;;0.50;0.50;;;;;;;23.41;48.40;97368.69;5040805;28;20602;-86
2021/08/07 05:37:30;;;;;;;0.60;0.60;;;;;;;23.44;48.53;97370.91;5024635;28;20201;-86
2021/08/07 05:39:59;;;;;;;0.60;0.60;;;;;;;23.44;48.57;97370.09;5041457;28;20193;-86
2021/08/07 05:42:26;;;;;;;0.67;0.67;;;;;;;23.46;48.17;97362.69;5041496;28;20201;-86
2021/08/07 05:44:53;;;;;;;0.50;0.50;;;;;;;23.42;48.37;97358.84;5041161;28;20194;-86
2021/08/07 05:47:20;;;;;;;0.60;0.60;;;;;;;23.47;48.20;97354.50;5041211;28;20713;-85
2021/08/07 05:49:47;;;;;;;0.70;0.70;;;;;;;23.46;48.28;97360.03;5040584;28;20224;-85
2021/08/07 05:52:15;;;;;;;0.63;0.63;;;;;;;23.48;48.20;97372.09;5040205;28;20229;-86
2021/08/07 05:54:42;;;;;;;0.50;0.50;;;;;;;23.50;48.26;97371.88;5039927;28;20193;-86
2021/08/07 05:57:10;;;;;;;0.60;0.60;;;;;;;23.47;48.04;97373.13;5039645;28;20205;-86
2021/08/07 05:59:38;;;;;;;0.60;0.60;;;;;;;23.68;48.08;97371.06;5040553;28;20221;-85
2021/08/07 06:02:07;;;;;;;0.70;0.70;;;;;;;23.58;47.91;97376.91;5025434;28;20193;-86
2021/08/07 06:04:34;;;;;;;0.60;0.60;;;;;;;23.60;47.93;97379.38;5024911;28;20243;-86
2021/08/07 06:07:03;;;;;;;0.60;0.60;;;;;;;23.55;48.17;97380.03;5041047;28;20200;-85
2021/08/07 06:09:31;;;;;;;0.60;0.60;;;;;;;23.68;47.75;97379.88;5040131;28;20298;-86
2021/08/07 06:11:58;;;;;;;0.60;0.60;;;;;;;23.82;47.43;97380.56;5040066;28;20193;-86
2021/08/07 06:14:25;;;;;;;0.57;0.57;;;;;;;23.90;47.11;97376.78;5039728;28;20642;-86
2021/08/07 06:16:52;;;;;;;0.47;0.47;;;;;;;23.56;48.03;97381.66;5039815;28;20236;-86
2021/08/07 06:19:20;;;;;;;0.70;0.70;;;;;;;23.75;47.59;97381.66;5041170;28;20193;-85
2021/08/07 06:21:48;;;;;;;0.50;0.50;;;;;;;23.80;47.23;97379.97;5039905;28;20197;-85
2021/08/07 06:24:15;;;;;;;0.60;0.60;;;;;;;23.92;47.17;97373.91;5039532;28;20204;-85
2021/08/07 06:26:43;;;;;;;0.53;0.53;;;;;;;23.94;46.97;97366.50;5024240;28;20288;-83
2021/08/07 06:29:12;;;;;;;0.50;0.50;;;;;;;23.88;47.33;97368.19;5026804;28;20221;-83
2021/08/07 06:31:39;;;;;;;0.60;0.60;;;;;;;23.99;46.93;97352.50;5042503;28;20197;-83
2021/08/07 06:34:07;;;;;;;0.70;0.53;;;;;;;23.88;47.34;97351.38;5042550;28;20709;-83
2021/08/07 06:36:35;;;;;;;2.60;0.90;;;;;;;23.98;46.99;97357.00;5041482;28;20199;-83
2021/08/07 06:39:03;;;;;;;0.83;0.80;;;;;;;24.01;47.07;97359.22;5025807;28;20189;-83
2021/08/07 06:41:31;;;;;;;1.03;1.00;;;;;;;24.04;47.02;97358.81;5024914;28;20201;-83
2021/08/07 06:44:12;;;;;;;1.23;0.97;;;;;;;24.01;47.18;97356.56;5041557;28;20205;-83
2021/08/07 06:46:40;;;;;;;2.23;1.10;;;;;;;23.89;47.31;97358.38;5041124;28;20189;-83
2021/08/07 06:49:07;;;;;;;1.67;1.00;;;;;;;23.87;47.54;97361.25;5025193;28;20213;-83
2021/08/07 06:51:35;;;;;;;1.13;1.00;;;;;;;23.83;47.69;97360.06;5041299;28;20224;-85
2021/08/07 06:54:03;;;;;;;1.33;1.10;;;;;;;23.81;47.69;97352.28;5041540;28;20580;-83
2021/08/07 06:56:31;;;;;;;1.90;1.17;;;;;;;23.71;47.97;97359.16;5024043;28;20205;-83
2021/08/07 06:59:00;;;;;;;2.70;1.13;;;;;;;23.70;48.43;97358.34;5024205;28;20197;-83
2021/08/07 07:01:27;;;;;;;1.43;0.90;;;;;;;23.71;48.15;97351.97;5040734;28;20585;-83
2021/08/07 07:03:54;;;;;;;2.83;1.40;;;;;;;23.72;48.44;97353.63;5040063;28;20292;-83
2021/08/07 07:06:21;;;;;;;2.30;1.07;;;;;;;23.70;48.32;97347.69;5041341;28;20319;-83
2021/08/07 07:08:50;;;;;;;1.93;1.03;;;;;;;23.61;48.78;97351.69;5039496;28;20544;-83
2021/08/07 07:11:17;;;;;;;3.27;1.17;;;;;;;23.61;48.46;97351.69;5022259;28;20194;-85
2021/08/07 07:13:45;;;;;;;2.90;1.33;;;;;;;23.58;48.55;97362.81;5038156;28;20189;-85
2021/08/07 07:16:12;;;;;;;2.67;1.30;;;;;;;23.60;48.63;97368.72;5022098;28;20549;-85
2021/08/07 07:18:39;;;;;;;2.10;1.10;;;;;;;23.60;48.60;97366.06;5037074;28;20190;-85
2021/08/07 07:21:06;;;;;;;4.43;1.10;;;;;;;23.61;48.68;97373.81;5037853;28;20197;-86
2021/08/07 07:23:33;;;;;;;2.87;1.30;;;;;;;23.66;48.40;97373.16;5021555;28;20225;-86
2021/08/07 07:25:59;;;;;;;1.50;1.00;;;;;;;23.65;48.36;97377.69;5037787;28;20189;-86
2021/08/07 07:28:26;;;;;;;2.00;1.20;;;;;;;23.63;48.52;97371.72;5038021;28;20650;-85
2021/08/07 07:30:53;;;;;;;2.37;1.20;;;;;;;23.66;48.52;97370.47;5037819;28;20300;-87
2021/08/07 07:33:20;;;;;;;1.10;1.00;;;;;;;23.70;48.50;97366.34;5037894;28;20626;-87
2021/08/07 07:35:46;;;;;;;0.90;0.90;;;;;;;23.74;48.48;97364.06;5021304;28;20192;-87
2021/08/07 07:38:13;;;;;;;3.70;1.40;;;;;;;23.75;48.33;97363.84;5021256;28;20193;-86
2021/08/07 07:40:40;;;;;;;1.40;0.90;;;;;;;23.79;48.23;97361.53;5038131;28;20295;-87
2021/08/07 07:43:08;;;;;;;2.13;1.20;;;;;;;23.78;48.38;97354.56;5037733;28;20201;-87
2021/08/07 07:45:34;;;;;;;1.73;1.00;;;;;;;23.78;48.45;97352.75;5037933;28;20197;-86
2021/08/07 07:48:04;;;;;;;1.43;0.93;;;;;;;23.81;48.34;97351.50;5037824;28;20212;-88
2021/08/07 07:50:30;;;;;;;1.37;1.00;;;;;;;23.84;48.29;97352.88;5038626;28;20271;-86
2021/08/07 07:52:59;;;;;;;1.47;1.00;;;;;;;23.83;48.23;97349.41;5039109;28;20239;-87
2021/08/07 07:55:28;;;;;;;2.40;1.23;;;;;;;23.86;48.04;97343.63;5041067;28;20582;-82
2021/08/07 07:58:00;;;;;;;3.40;1.10;;;;;;;23.86;48.22;97338.31;5044807;28;20263;-82
2021/08/07 08:00:30;;;;;;;2.40;1.20;;;;;;;24.04;47.74;97342.81;5041133;28;20208;-84
2021/08/07 08:02:58;;;;;;;3.17;1.17;;;;;;;24.16;47.66;97336.72;5038916;28;20645;-89
2021/08/07 08:05:31;;;;;;;3.60;1.40;;;;;;;24.31;47.13;97336.34;5033750;28;20289;-87
2021/08/07 08:08:01;;;;;;;1.57;1.10;;;;;;;24.37;47.10;97348.75;5018113;28;20287;-88
2021/08/07 08:10:28;;;;;;;3.13;1.10;;;;;;;24.38;47.00;97361.06;5037125;28;20266;-88
2021/08/07 08:12:55;;;;;;;2.73;1.20;;;;;;;24.38;46.96;97356.53;5017281;28;20244;-88
2021/08/07 08:15:22;;;;;;;2.40;1.13;;;;;;;24.36;46.87;97361.25;5031450;28;20291;-88
2021/08/07 08:17:49;;;;;;;2.87;1.20;;;;;;;24.30;46.72;97353.38;5057483;28;20192;-87
2021/08/07 08:20:17;;;;;;;2.50;1.23;;;;;;;24.24;47.00;97355.09;5040049;28;20538;-88
2021/08/07 08:22:44;;;;;;;2.37;1.20;;;;;;;24.26;46.74;97361.00;5061541;28;20208;-88
2021/08/07 08:25:11;;;;;;;2.10;1.10;;;;;;;24.30;46.71;97354.19;5027179;28;20197;-89
2021/08/07 08:27:39;;;;;;;1.97;1.20;;;;;;;24.38;46.53;97358.38;5042474;28;20185;-89
2021/08/07 08:30:08;;;;;;;2.70;1.20;;;;;;;24.40;46.55;97352.84;5041298;28;20213;-88
2021/08/07 08:32:39;;;;;;;3.53;1.37;;;;;;;24.43;46.48;97355.03;5025896;28;20208;-88
2021/08/07 08:35:06;;;;;;;3.70;1.30;;;;;;;24.40;46.39;97358.16;5033103;28;20210;-89
2021/08/07 08:37:33;;;;;;;3.37;1.27;;;;;;;24.38;46.39;97351.22;5021262;28;20198;-88
2021/08/07 08:39:59;;;;;;;3.37;1.40;;;;;;;24.36;46.63;97347.94;5006502;28;20194;-88
2021/08/07 08:42:26;;;;;;;3.43;1.30;;;;;;;24.35;46.40;97346.31;5044586;28;20193;-89
2021/08/07 08:44:53;;;;;;;3.60;1.30;;;;;;;24.29;46.63;97338.44;5061803;28;20208;-88
2021/08/07 08:47:22;;;;;;;4.50;1.40;;;;;;;24.24;46.47;97341.75;5062093;28;20189;-88
2021/08/07 08:49:53;;;;;;;3.07;1.27;;;;;;;24.20;46.68;97351.22;5061470;28;20204;-88
2021/08/07 08:52:25;;;;;;;3.07;1.50;;;;;;;24.16;46.94;97358.06;5061239;28;20199;-88
2021/08/07 08:54:53;;;;;;;3.33;1.47;;;;;;;24.15;47.04;97353.75;5061542;28;20199;-88
2021/08/07 08:57:21;;;;;;;2.93;1.60;;;;;;;24.15;47.17;97348.44;5078528;28;20212;-88
2021/08/07 08:59:49;;;;;;;2.97;1.30;;;;;;;24.10;47.14;97346.44;5061751;28;20242;-89
2021/08/07 09:02:17;;;;;;;2.70;1.40;;;;;;;24.09;47.23;97348.31;5044836;28;20227;-89
2021/08/07 09:04:45;;;;;;;2.53;1.30;;;;;;;24.09;47.16;97348.31;5061088;28;20196;-88
2021/08/07 09:07:14;;;;;;;4.97;1.60;;;;;;;24.12;47.36;97346.22;5061307;28;20265;-89
2021/08/07 09:09:44;;;;;;;2.27;1.60;;;;;;;24.12;47.40;97348.88;5061289;28;20219;-89
2021/08/07 09:12:15;;;;;;;2.50;1.30;;;;;;;24.18;47.09;97353.31;5045689;28;20261;-89
2021/08/07 09:14:47;;;;;;;3.40;1.60;;;;;;;24.21;47.05;97343.00;5040887;28;20193;-89
2021/08/07 09:17:17;;;;;;;4.40;1.40;;;;;;;24.25;47.01;97327.41;5025105;28;20186;-89
2021/08/07 09:19:55;;;;;;;2.40;1.30;;;;;;;24.32;46.71;97316.63;5026004;28;20185;-88
2021/08/07 09:22:25;;;;;;;6.93;1.60;;;;;;;24.37;46.87;97314.94;5025464;28;20296;-89
2021/08/07 09:24:55;;;;;;;5.13;1.80;;;;;;;24.45;46.73;97324.47;5025519;28;20193;-89
2021/08/07 09:27:40;;;;;;;4.83;1.60;;;;;;;24.50;46.30;97331.75;5041509;28;20198;-90
2021/08/07 09:30:16;;;;;;;4.37;1.37;;;;;;;24.57;46.48;97326.31;5025322;28;20213;-90
2021/08/07 09:33:22;;;;;;;3.83;1.50;;;;;;;24.51;46.44;97330.72;5024129;28;20225;-88
2021/08/07 09:35:48;;;;;;;4.53;1.40;;;;;;;24.45;46.64;97328.97;5015060;28;20208;-88
2021/08/07 09:38:22;;;;;;;6.50;1.60;;;;;;;24.37;46.65;97325.59;5026080;28;20193;-87
2021/08/07 09:41:10;;;;;;;2.53;1.40;;;;;;;24.30;46.90;97332.84;5046583;28;20227;-88
2021/08/07 09:43:48;;;;;;;2.43;1.50;;;;;;;24.32;46.93;97328.09;5041044;28;20284;-87
2021/08/07 09:46:25;;;;;;;3.13;1.30;;;;;;;24.37;47.08;97316.75;5040480;28;20189;-87
2021/08/07 09:48:57;;;;;;;4.57;1.50;;;;;;;24.34;46.82;97323.34;5040860;28;20299;-87
2021/08/07 09:51:29;;;;;;;3.43;1.53;;;;;;;24.38;47.05;97327.22;5024630;28;20198;-86
2021/08/07 09:54:02;;;;;;;8.90;3.73;;;;;;;24.38;46.97;97324.53;5041957;28;20219;-85
2021/08/07 09:56:53;;;;;;;11.43;4.40;;;;;;;24.36;47.03;97307.94;5042309;28;20284;-86
2021/08/07 09:59:29;;;;;;;13.07;5.37;;;;;;;24.34;46.75;97303.91;5040979;28;20704;-86
2021/08/07 10:01:57;;;;;;;21.23;8.53;;;;;;;24.27;46.85;97306.66;5027806;28;20610;-86
2021/08/07 10:04:39;;;;;;;17.43;7.83;;;;;;;24.18;47.30;97316.00;5030853;28;20189;-86
2021/08/07 10:07:09;;;;;;;13.97;6.57;;;;;;;24.13;47.58;97322.03;5045127;28;20181;-86
2021/08/07 10:09:41;;;;;;;10.53;5.23;;;;;;;24.09;47.41;97316.31;5040928;28;20656;-87
2021/08/07 10:12:14;;;;;;;10.87;5.40;;;;;;;24.17;47.38;97322.38;5039296;28;20197;-86
2021/08/07 10:14:51;;;;;;;8.43;4.43;;;;;;;24.24;47.22;97326.56;5039714;28;20197;-85
2021/08/07 10:17:23;;;;;;;11.23;4.50;;;;;;;24.30;46.95;97327.53;5040813;28;20204;-87
2021/08/07 10:19:51;;;;;;;6.20;3.20;;;;;;;24.29;47.03;97319.75;5023747;28;20665;-87
2021/08/07 10:22:20;;;;;;;5.03;2.87;;;;;;;24.26;46.50;97318.34;5040336;28;20196;-87
2021/08/07 10:24:51;;;;;;;4.33;2.43;;;;;;;24.27;46.57;97317.31;5024000;28;20273;-86
2021/08/07 10:27:21;;;;;;;5.67;2.37;;;;;;;24.30;46.64;97316.06;5022686;28;20606;-87
2021/08/07 10:29:53;;;;;;;6.17;2.80;;;;;;;24.31;46.49;97318.47;5040584;28;20214;-88
2021/08/07 10:32:23;;;;;;;4.93;2.70;;;;;;;24.33;46.59;97312.94;5059298;28;20189;-88
2021/08/07 10:34:53;;;;;;;5.70;2.27;;;;;;;24.39;46.29;97306.69;5025830;28;20186;-88
2021/08/07 10:37:23;;;;;;;5.80;2.33;;;;;;;24.35;46.40;97319.66;5041188;28;20189;-89
2021/08/07 10:39:49;;;;;;;3.80;2.20;;;;;;;24.40;46.34;97334.97;5042013;28;20266;-89
2021/08/07 10:42:18;;;;;;;5.40;2.60;;;;;;;24.47;46.20;97327.69;5022481;28;20197;-88
2021/08/07 10:44:47;;;;;;;5.53;2.33;;;;;;;24.54;46.15;97327.59;5038137;28;20198;-88
2021/08/07 10:47:30;;;;;;;5.33;2.50;;;;;;;24.54;46.03;97322.28;5038986;28;20508;-88
2021/08/07 10:49:57;;;;;;;14.87;2.53;;;;;;;24.57;46.08;97323.66;5048755;28;20669;-88
2021/08/07 10:52:27;;;;;;;5.43;2.20;;;;;;;24.56;46.32;97316.69;5038493;28;20201;-88
2021/08/07 10:54:55;;;;;;;5.83;2.37;;;;;;;24.61;45.93;97314.97;5038730;28;20204;-88
2021/08/07 10:57:39;;;;;;;4.97;2.30;;;;;;;24.64;46.05;97306.50;5038529;28;20209;-88
2021/08/07 11:00:16;;;;;;;5.87;2.30;;;;;;;24.62;45.93;97315.81;5038429;28;20251;-88
2021/08/07 11:02:45;;;;;;;3.70;2.23;;;;;;;24.55;46.36;97309.72;5022146;28;20223;-88
2021/08/07 11:05:13;;;;;;;6.73;2.27;;;;;;;24.49;46.33;97308.78;5056322;28;20280;-88
2021/08/07 11:07:40;;;;;;;5.30;2.17;;;;;;;24.43;46.39;97297.19;5022126;28;20251;-88
2021/08/07 11:10:15;;;;;;;4.37;2.03;;;;;;;24.45;46.32;97302.28;5038566;28;20205;-88
2021/08/07 11:12:45;;;;;;;4.53;2.20;;;;;;;24.46;46.19;97302.06;5056099;28;20199;-88
2021/08/07 11:15:28;;;;;;;5.70;2.30;;;;;;;24.46;46.47;97298.59;5055760;28;20200;-88
2021/08/07 11:17:55;;;;;;;4.27;2.10;;;;;;;24.40;46.12;97294.19;5021777;28;20281;-88
2021/08/07 11:20:39;;;;;;;3.00;1.83;;;;;;;24.37;46.62;97296.25;5038001;28;20204;-88
2021/08/07 11:23:08;;;;;;;5.33;2.13;;;;;;;24.36;46.43;97289.28;5038065;28;20611;-88
2021/08/07 11:26:03;;;;;;;4.27;2.13;;;;;;;24.37;46.38;97290.94;5038068;28;20247;-88
2021/08/07 11:28:31;;;;;;;3.70;2.00;;;;;;;24.32;46.32;97277.44;5036728;28;20208;-88
2021/08/07 11:31:16;;;;;;;4.07;2.20;;;;;;;24.38;46.63;97270.41;5021549;28;20248;-88
2021/08/07 11:33:42;;;;;;;3.13;2.20;;;;;;;24.36;46.40;97265.28;5037841;28;20197;-88
2021/08/07 11:36:11;;;;;;;4.60;2.30;;;;;;;24.37;46.57;97274.09;5037816;28;20203;-88
2021/08/07 11:38:58;;;;;;;4.40;2.13;;;;;;;24.39;46.39;97269.34;5021549;28;20236;-88
2021/08/07 11:41:29;;;;;;;3.17;2.00;;;;;;;24.43;46.36;97251.84;5037729;28;20185;-88
2021/08/07 11:43:56;;;;;;;4.53;2.10;;;;;;;24.42;46.28;97260.09;5021276;28;20200;-88
2021/08/07 11:46:32;;;;;;;3.00;1.93;;;;;;;24.42;46.32;97266.22;5021276;28;20523;-88
2021/08/07 11:48:59;;;;;;;4.27;2.37;;;;;;;24.45;46.03;97265.78;5037596;28;20185;-88